PWSweather.com
Personal Weather Stations
Station Observations

TilburgNL

Lat: 51.5791595, Lon: 5.0102304

Elevation: 27.9

Station Type: La-crosse WS 2800

http://www.weerstationtilburgreeshof.nl/

Latest ConditionsUpdated 2:10:23 AM GMT+01:01 Sunday, Oct 22, 2017
Currently Today's Max Today's Min Today's Average
Temperature 52.3°F11.3°C 52.3°F11.3°C 51.6°F10.9°C 51.9°F11.1°C
Dew Point 45.3°F7.4°C 45.5°F7.5°C 45.0°F7.2°C 45.2°F7.3°C
Winds 6.0 mph S9.7 kmh S 6.5 mph S10.5 kmh S - 4.8 mph 7.7 kmh
Wind Gusts 7.6 mph12.2 kmh 9.2 mph14.8 kmh - -
Humidity 77% 79% 77% 78%
Pressure 29.73 in1006.8 mb 29.77 in1008.1 mb 29.73 in1006.8 mb -
Hour Temp Dew Point Humidity Winds Wind Gusts Pressure Precip Precip Rate Daily Precip Total
02:10 AM 52.3°F11.3°C 45.3°F7.4°C 77% 6.0 mph S9.7 kmh S 7.6 mph12.2 kmh 29.73 in1006.8 mb 0.00 in0.0 mm 0.00 in0.0 mm 0.00 in0.0 mm
02:05 AM 52.3°F11.3°C 45.3°F7.4°C 77% 5.2 mph SSW8.4 kmh SSW 6.9 mph11.1 kmh 29.73 in1006.8 mb 0.00 in0.0 mm 0.00 in0.0 mm 0.00 in0.0 mm
02:00 AM 52.3°F11.3°C 45.3°F7.4°C 77% 5.0 mph S8.0 kmh S 6.9 mph11.1 kmh 29.73 in1006.8 mb 0.00 in0.0 mm 0.00 in0.0 mm 0.00 in0.0 mm
01:55 AM 52.2°F11.2°C 45.1°F7.3°C 77% 6.3 mph S10.1 kmh S 8.7 mph14.0 kmh 29.74 in1007.1 mb 0.00 in0.0 mm 0.00 in0.0 mm 0.00 in0.0 mm
01:50 AM 52.2°F11.2°C 45.1°F7.3°C 77% 6.5 mph S10.5 kmh S 9.2 mph14.8 kmh 29.74 in1007.1 mb 0.00 in0.0 mm 0.00 in0.0 mm 0.00 in0.0 mm
01:45 AM 52.2°F11.2°C 45.1°F7.3°C 77% 5.0 mph SSW8.0 kmh SSW 9.2 mph14.8 kmh 29.74 in1007.1 mb 0.00 in0.0 mm 0.00 in0.0 mm 0.00 in0.0 mm
01:40 AM 52.2°F11.2°C 45.1°F7.3°C 77% 5.0 mph SSW8.0 kmh SSW 9.2 mph14.8 kmh 29.74 in1007.1 mb 0.00 in0.0 mm 0.00 in0.0 mm 0.00 in0.0 mm
01:35 AM 52.2°F11.2°C 45.1°F7.3°C 77% 5.1 mph S8.2 kmh S 9.2 mph14.8 kmh 29.74 in1007.1 mb 0.00 in0.0 mm 0.00 in0.0 mm 0.00 in0.0 mm
01:30 AM 52.0°F11.1°C 45.3°F7.4°C 78% 5.1 mph SSW8.2 kmh SSW 7.4 mph11.9 kmh 29.74 in1007.1 mb 0.00 in0.0 mm 0.00 in0.0 mm 0.00 in0.0 mm
01:25 AM 52.0°F11.1°C 45.3°F7.4°C 78% 5.3 mph SSW8.5 kmh SSW 7.4 mph11.9 kmh 29.74 in1007.1 mb 0.00 in0.0 mm 0.00 in0.0 mm 0.00 in0.0 mm
01:20 AM 51.8°F11.0°C 45.1°F7.3°C 78% 5.5 mph S8.9 kmh S 8.5 mph13.7 kmh 29.74 in1007.1 mb 0.00 in0.0 mm 0.00 in0.0 mm 0.00 in0.0 mm
01:15 AM 51.8°F11.0°C 45.1°F7.3°C 78% 4.8 mph SSW7.7 kmh SSW 8.5 mph13.7 kmh 29.74 in1007.1 mb 0.00 in0.0 mm 0.00 in0.0 mm 0.00 in0.0 mm
01:10 AM 51.8°F11.0°C 45.1°F7.3°C 78% 4.1 mph SSW6.6 kmh SSW 5.8 mph9.3 kmh 29.74 in1007.1 mb 0.00 in0.0 mm 0.00 in0.0 mm 0.00 in0.0 mm
01:05 AM 51.8°F11.0°C 45.1°F7.3°C 78% 4.7 mph S7.6 kmh S 8.5 mph13.7 kmh 29.74 in1007.1 mb 0.00 in0.0 mm 0.00 in0.0 mm 0.00 in0.0 mm
01:00 AM 51.6°F10.9°C 45.0°F7.2°C 78% 4.4 mph S7.1 kmh S 8.5 mph13.7 kmh 29.74 in1007.1 mb 0.00 in0.0 mm 0.00 in0.0 mm 0.00 in0.0 mm
12:55 AM 51.8°F11.0°C 45.1°F7.3°C 78% 4.4 mph S7.1 kmh S 6.9 mph11.1 kmh 29.74 in1007.1 mb 0.00 in0.0 mm 0.00 in0.0 mm 0.00 in0.0 mm
12:50 AM 51.6°F10.9°C 45.0°F7.2°C 78% 5.0 mph S8.0 kmh S 6.9 mph11.1 kmh 29.75 in1007.5 mb 0.00 in0.0 mm 0.00 in0.0 mm 0.00 in0.0 mm
12:45 AM 51.6°F10.9°C 45.0°F7.2°C 78% 4.9 mph S7.9 kmh S 6.9 mph11.1 kmh 29.75 in1007.5 mb 0.00 in0.0 mm 0.00 in0.0 mm 0.00 in0.0 mm
12:40 AM 51.6°F10.9°C 45.3°F7.4°C 79% 4.4 mph SSW7.1 kmh SSW 6.9 mph11.1 kmh 29.76 in1007.8 mb 0.00 in0.0 mm 0.00 in0.0 mm 0.00 in0.0 mm
12:35 AM 51.6°F10.9°C 45.3°F7.4°C 79% 4.6 mph SSW7.4 kmh SSW 9.2 mph14.8 kmh 29.75 in1007.5 mb 0.00 in0.0 mm 0.00 in0.0 mm 0.00 in0.0 mm
12:30 AM 51.6°F10.9°C 45.3°F7.4°C 79% 4.4 mph S7.1 kmh S 9.2 mph14.8 kmh 29.76 in1007.8 mb 0.00 in0.0 mm 0.00 in0.0 mm 0.00 in0.0 mm
12:25 AM 51.6°F10.9°C 45.3°F7.4°C 79% 4.0 mph S6.4 kmh S 6.7 mph10.8 kmh 29.76 in1007.8 mb 0.00 in0.0 mm 0.00 in0.0 mm 0.00 in0.0 mm
12:20 AM 51.8°F11.0°C 45.5°F7.5°C 79% 4.6 mph S7.4 kmh S 6.3 mph10.1 kmh 29.76 in1007.8 mb 0.00 in0.0 mm 0.00 in0.0 mm 0.00 in0.0 mm
12:15 AM 51.8°F11.0°C 45.5°F7.5°C 79% 4.4 mph S7.1 kmh S 5.6 mph9.0 kmh 29.77 in1008.1 mb 0.00 in0.0 mm 0.00 in0.0 mm 0.00 in0.0 mm
12:10 AM 51.8°F11.0°C 45.5°F7.5°C 79% 4.0 mph S6.4 kmh S 5.6 mph9.0 kmh 29.77 in1008.1 mb 0.00 in0.0 mm 0.00 in0.0 mm 0.00 in0.0 mm
12:05 AM 51.8°F11.0°C 45.5°F7.5°C 79% 4.2 mph S6.8 kmh S 5.6 mph9.0 kmh 29.76 in1007.8 mb 0.00 in0.0 mm 0.00 in0.0 mm 0.00 in0.0 mm
12:00 AM 51.8°F11.0°C 45.5°F7.5°C 79% 3.9 mph S6.3 kmh S 5.4 mph8.7 kmh 29.77 in1008.1 mb 0.00 in0.0 mm 0.00 in0.0 mm 0.00 in0.0 mm